sensor_id;sensor_type;location;lat;lon;timestamp;pressure;altitude;pressure_sealevel;temperature;humidity
71697;BME280;68167;59.120;37.898;2023-08-01T00:00:03;99247.84;;;16.44;81.00
71697;BME280;68167;59.120;37.898;2023-08-01T00:02:38;99263.19;;;16.44;81.23
71697;BME280;68167;59.120;37.898;2023-08-01T00:05:08;99196.41;;;15.98;81.34
71697;BME280;68167;59.120;37.898;2023-08-01T00:07:35;99214.97;;;16.08;81.05
71697;BME280;68167;59.120;37.898;2023-08-01T00:10:02;99265.81;;;16.35;81.31
71697;BME280;68167;59.120;37.898;2023-08-01T00:12:33;99226.19;;;16.10;80.99
71697;BME280;68167;59.120;37.898;2023-08-01T00:15:00;99275.78;;;16.35;81.09
71697;BME280;68167;59.120;37.898;2023-08-01T00:17:27;99275.28;;;16.33;81.34
71697;BME280;68167;59.120;37.898;2023-08-01T00:19:53;99251.03;;;16.16;81.51
71697;BME280;68167;59.120;37.898;2023-08-01T00:22:21;99221.56;;;16.02;81.38
71697;BME280;68167;59.120;37.898;2023-08-01T00:24:48;99280.34;;;16.34;81.21
71697;BME280;68167;59.120;37.898;2023-08-01T00:27:14;99261.34;;;16.22;81.53
71697;BME280;68167;59.120;37.898;2023-08-01T00:29:41;99276.88;;;16.34;81.59
71697;BME280;68167;59.120;37.898;2023-08-01T00:32:08;99254.19;;;16.18;81.80
71697;BME280;68167;59.120;37.898;2023-08-01T00:34:37;99252.00;;;16.20;81.83
71697;BME280;68167;59.120;37.898;2023-08-01T00:37:04;99296.53;;;16.43;81.29
71697;BME280;68167;59.120;37.898;2023-08-01T00:39:31;99282.25;;;16.34;81.85
71697;BME280;68167;59.120;37.898;2023-08-01T00:41:59;99254.50;;;16.16;81.89
71697;BME280;68167;59.120;37.898;2023-08-01T00:44:25;99254.69;;;16.20;81.68
71697;BME280;68167;59.120;37.898;2023-08-01T00:46:57;99276.56;;;16.35;81.95
71697;BME280;68167;59.120;37.898;2023-08-01T00:49:24;99252.44;;;16.13;81.78
71697;BME280;68167;59.120;37.898;2023-08-01T00:51:50;99297.94;;;16.40;81.95
71697;BME280;68167;59.120;37.898;2023-08-01T00:54:17;99271.09;;;16.18;82.04
71697;BME280;68167;59.120;37.898;2023-08-01T00:56:44;99301.53;;;16.36;81.81
71697;BME280;68167;59.120;37.898;2023-08-01T00:59:12;99313.88;;;16.37;82.07
71697;BME280;68167;59.120;37.898;2023-08-01T01:01:39;99274.53;;;16.10;81.71
71697;BME280;68167;59.120;37.898;2023-08-01T01:04:05;99260.44;;;16.04;81.71
71697;BME280;68167;59.120;37.898;2023-08-01T01:09:39;99303.34;;;16.18;81.60
71697;BME280;68167;59.120;37.898;2023-08-01T01:12:05;99315.53;;;16.24;81.87
71697;BME280;68167;59.120;37.898;2023-08-01T01:14:33;99279.03;;;16.01;82.03
71697;BME280;68167;59.120;37.898;2023-08-01T01:17:00;99301.88;;;16.12;82.09
71697;BME280;68167;59.120;37.898;2023-08-01T01:19:26;99269.81;;;15.93;82.11
71697;BME280;68167;59.120;37.898;2023-08-01T01:21:53;99268.53;;;15.91;82.05
71697;BME280;68167;59.120;37.898;2023-08-01T01:24:26;99245.72;;;15.79;82.48
71697;BME280;68167;59.120;37.898;2023-08-01T01:26:54;99306.50;;;16.20;82.49
71697;BME280;68167;59.120;37.898;2023-08-01T01:29:23;99282.88;;;16.08;82.83
71697;BME280;68167;59.120;37.898;2023-08-01T01:31:50;99300.22;;;16.25;82.50
71697;BME280;68167;59.120;37.898;2023-08-01T01:34:17;99310.50;;;16.31;82.44
71697;BME280;68167;59.120;37.898;2023-08-01T01:36:44;99242.59;;;15.86;82.51
71697;BME280;68167;59.120;37.898;2023-08-01T01:39:10;99305.75;;;16.28;82.72
71697;BME280;68167;59.120;37.898;2023-08-01T01:41:37;99293.09;;;16.20;82.46
71697;BME280;68167;59.120;37.898;2023-08-01T01:44:03;99313.50;;;16.30;82.60
71697;BME280;68167;59.120;37.898;2023-08-01T01:46:30;99261.53;;;16.03;82.66
71697;BME280;68167;59.120;37.898;2023-08-01T01:48:56;99302.13;;;16.24;82.51
71697;BME280;68167;59.120;37.898;2023-08-01T01:51:28;99260.06;;;15.97;82.53
71697;BME280;68167;59.120;37.898;2023-08-01T01:53:54;99297.66;;;16.20;82.50
71697;BME280;68167;59.120;37.898;2023-08-01T01:56:23;99286.25;;;16.14;82.50
71697;BME280;68167;59.120;37.898;2023-08-01T01:58:49;99290.22;;;16.17;82.65
71697;BME280;68167;59.120;37.898;2023-08-01T02:01:16;99318.94;;;16.38;83.01
71697;BME280;68167;59.120;37.898;2023-08-01T02:03:43;99283.44;;;16.19;82.74
71697;BME280;68167;59.120;37.898;2023-08-01T02:06:09;99311.38;;;16.40;82.50
71697;BME280;68167;59.120;37.898;2023-08-01T02:08:36;99282.03;;;16.22;82.62
71697;BME280;68167;59.120;37.898;2023-08-01T02:11:03;99292.31;;;16.28;82.47
71697;BME280;68167;59.120;37.898;2023-08-01T02:13:32;99291.53;;;16.28;82.27
71697;BME280;68167;59.120;37.898;2023-08-01T02:15:59;99307.16;;;16.48;82.54
71697;BME280;68167;59.120;37.898;2023-08-01T02:18:26;99251.94;;;16.11;82.60
71697;BME280;68167;59.120;37.898;2023-08-01T02:20:59;99314.91;;;16.50;82.34
71697;BME280;68167;59.120;37.898;2023-08-01T02:23:25;99318.69;;;16.48;82.50
71697;BME280;68167;59.120;37.898;2023-08-01T02:25:52;99317.28;;;16.51;82.57
71697;BME280;68167;59.120;37.898;2023-08-01T02:28:18;99320.28;;;16.50;82.28
71697;BME280;68167;59.120;37.898;2023-08-01T02:30:45;99332.47;;;16.56;82.34
71697;BME280;68167;59.120;37.898;2023-08-01T02:33:11;99328.09;;;16.60;82.42
71697;BME280;68167;59.120;37.898;2023-08-01T02:35:38;99317.75;;;16.53;82.27
71697;BME280;68167;59.120;37.898;2023-08-01T02:38:04;99316.78;;;16.49;82.33
71697;BME280;68167;59.120;37.898;2023-08-01T02:40:31;99328.09;;;16.60;82.49
71697;BME280;68167;59.120;37.898;2023-08-01T02:42:57;99283.53;;;16.36;82.16
71697;BME280;68167;59.120;37.898;2023-08-01T02:45:24;99329.38;;;16.62;82.08
71697;BME280;68167;59.120;37.898;2023-08-01T02:47:51;99291.94;;;16.43;82.38
71697;BME280;68167;59.120;37.898;2023-08-01T02:50:17;99294.81;;;16.47;81.94
71697;BME280;68167;59.120;37.898;2023-08-01T02:52:44;99308.97;;;16.61;82.23
71697;BME280;68167;59.120;37.898;2023-08-01T02:55:11;99300.38;;;16.51;81.86
71697;BME280;68167;59.120;37.898;2023-08-01T02:57:37;99322.47;;;16.70;82.06
71697;BME280;68167;59.120;37.898;2023-08-01T03:00:05;99325.97;;;16.70;81.69
71697;BME280;68167;59.120;37.898;2023-08-01T03:02:32;99327.59;;;16.80;81.96
71697;BME280;68167;59.120;37.898;2023-08-01T03:04:59;99340.59;;;16.87;81.71
71697;BME280;68167;59.120;37.898;2023-08-01T03:07:25;99268.56;;;16.44;81.86
71697;BME280;68167;59.120;37.898;2023-08-01T03:09:52;99316.84;;;16.80;81.80
71697;BME280;68167;59.120;37.898;2023-08-01T03:12:19;99315.56;;;16.77;81.63
71697;BME280;68167;59.120;37.898;2023-08-01T03:14:47;99296.22;;;16.67;81.89
71697;BME280;68167;59.120;37.898;2023-08-01T03:17:14;99271.47;;;16.56;81.65
71697;BME280;68167;59.120;37.898;2023-08-01T03:19:40;99336.88;;;17.05;81.44
71697;BME280;68167;59.120;37.898;2023-08-01T03:22:07;99324.34;;;17.00;81.38
71697;BME280;68167;59.120;37.898;2023-08-01T03:24:33;99277.59;;;16.70;81.18
71697;BME280;68167;59.120;37.898;2023-08-01T03:27:01;99299.78;;;16.93;81.23
71697;BME280;68167;59.120;37.898;2023-08-01T03:29:27;99334.69;;;17.16;81.34
71697;BME280;68167;59.120;37.898;2023-08-01T03:31:54;99309.31;;;16.99;81.15
71697;BME280;68167;59.120;37.898;2023-08-01T03:34:20;99340.91;;;17.25;80.71
71697;BME280;68167;59.120;37.898;2023-08-01T03:36:47;99312.22;;;17.11;80.82
71697;BME280;68167;59.120;37.898;2023-08-01T03:39:14;99311.41;;;17.11;80.76
71697;BME280;68167;59.120;37.898;2023-08-01T03:41:40;99291.13;;;17.05;80.59
71697;BME280;68167;59.120;37.898;2023-08-01T03:44:07;99308.75;;;17.20;80.12
71697;BME280;68167;59.120;37.898;2023-08-01T03:46:33;99327.63;;;17.28;79.65
71697;BME280;68167;59.120;37.898;2023-08-01T03:49:00;99363.47;;;17.55;79.04
71697;BME280;68167;59.120;37.898;2023-08-01T03:51:27;99350.47;;;17.48;79.44
71697;BME280;68167;59.120;37.898;2023-08-01T03:53:53;99324.34;;;17.40;79.08
71697;BME280;68167;59.120;37.898;2023-08-01T03:56:20;99317.84;;;17.41;78.63
71697;BME280;68167;59.120;37.898;2023-08-01T03:58:46;99315.81;;;17.47;78.37
71697;BME280;68167;59.120;37.898;2023-08-01T04:01:13;99344.81;;;17.67;77.81
71697;BME280;68167;59.120;37.898;2023-08-01T04:03:39;99353.53;;;17.72;77.48
71697;BME280;68167;59.120;37.898;2023-08-01T04:06:06;99343.09;;;17.71;77.29
71697;BME280;68167;59.120;37.898;2023-08-01T04:08:32;99355.78;;;17.79;77.15
71697;BME280;68167;59.120;37.898;2023-08-01T04:10:59;99320.53;;;17.58;76.62
71697;BME280;68167;59.120;37.898;2023-08-01T04:13:25;99322.78;;;17.65;76.40
71697;BME280;68167;59.120;37.898;2023-08-01T04:15:52;99347.41;;;17.89;76.03
71697;BME280;68167;59.120;37.898;2023-08-01T04:18:18;99344.84;;;17.84;76.01
71697;BME280;68167;59.120;37.898;2023-08-01T04:20:45;99334.88;;;17.85;75.64
71697;BME280;68167;59.120;37.898;2023-08-01T04:23:12;99362.63;;;18.11;75.01
71697;BME280;68167;59.120;37.898;2023-08-01T04:25:40;99354.06;;;18.09;75.17
71697;BME280;68167;59.120;37.898;2023-08-01T04:28:10;99341.06;;;18.02;75.18
71697;BME280;68167;59.120;37.898;2023-08-01T04:30:37;99376.69;;;18.25;74.75
71697;BME280;68167;59.120;37.898;2023-08-01T04:33:04;99314.13;;;17.94;74.64
71697;BME280;68167;59.120;37.898;2023-08-01T04:35:31;99344.41;;;18.17;74.17
71697;BME280;68167;59.120;37.898;2023-08-01T04:37:58;99376.22;;;18.40;74.29
71697;BME280;68167;59.120;37.898;2023-08-01T04:40:24;99318.25;;;18.08;73.79
71697;BME280;68167;59.120;37.898;2023-08-01T04:42:51;99363.06;;;18.39;73.51
71697;BME280;68167;59.120;37.898;2023-08-01T04:45:17;99349.44;;;18.35;73.74
71697;BME280;68167;59.120;37.898;2023-08-01T04:47:44;99370.84;;;18.49;73.19
71697;BME280;68167;59.120;37.898;2023-08-01T04:50:10;99370.22;;;18.61;73.76
71697;BME280;68167;59.120;37.898;2023-08-01T04:52:37;99353.53;;;18.59;73.85
71697;BME280;68167;59.120;37.898;2023-08-01T04:55:04;99323.59;;;18.43;73.30
71697;BME280;68167;59.120;37.898;2023-08-01T04:57:31;99390.91;;;18.86;73.54
71697;BME280;68167;59.120;37.898;2023-08-01T04:59:58;99358.13;;;18.75;73.51
71697;BME280;68167;59.120;37.898;2023-08-01T05:02:25;99387.06;;;19.04;73.88
71697;BME280;68167;59.120;37.898;2023-08-01T05:04:52;99391.19;;;19.11;73.00
71697;BME280;68167;59.120;37.898;2023-08-01T05:07:19;99383.09;;;19.11;73.34
71697;BME280;68167;59.120;37.898;2023-08-01T05:09:45;99380.34;;;19.19;73.00
71697;BME280;68167;59.120;37.898;2023-08-01T05:12:12;99386.50;;;19.28;72.67
71697;BME280;68167;59.120;37.898;2023-08-01T05:14:38;99372.69;;;19.30;72.42
71697;BME280;68167;59.120;37.898;2023-08-01T05:17:05;99390.91;;;19.41;72.58
71697;BME280;68167;59.120;37.898;2023-08-01T05:19:32;99387.88;;;19.43;72.54
71697;BME280;68167;59.120;37.898;2023-08-01T05:21:58;99366.78;;;19.36;72.06
71697;BME280;68167;59.120;37.898;2023-08-01T05:24:25;99377.50;;;19.54;71.90
71697;BME280;68167;59.120;37.898;2023-08-01T05:26:51;99355.81;;;19.41;72.09
71697;BME280;68167;59.120;37.898;2023-08-01T05:29:18;99364.47;;;19.56;71.68
71697;BME280;68167;59.120;37.898;2023-08-01T05:31:45;99358.75;;;19.57;71.27
71697;BME280;68167;59.120;37.898;2023-08-01T05:34:11;99368.06;;;19.68;71.19
71697;BME280;68167;59.120;37.898;2023-08-01T05:36:38;99386.34;;;19.92;70.80
71697;BME280;68167;59.120;37.898;2023-08-01T05:39:04;99392.03;;;19.99;70.75
71697;BME280;68167;59.120;37.898;2023-08-01T05:41:31;99393.09;;;20.07;70.60
71697;BME280;68167;59.120;37.898;2023-08-01T05:43:58;99407.44;;;20.20;70.38
71697;BME280;68167;59.120;37.898;2023-08-01T05:46:24;99350.91;;;19.94;70.32
71697;BME280;68167;59.120;37.898;2023-08-01T05:48:51;99377.13;;;20.14;70.27
71697;BME280;68167;59.120;37.898;2023-08-01T05:51:17;99382.72;;;20.30;70.44
71697;BME280;68167;59.120;37.898;2023-08-01T05:53:44;99405.81;;;20.48;70.07
71697;BME280;68167;59.120;37.898;2023-08-01T05:56:10;99361.41;;;20.28;69.55
71697;BME280;68167;59.120;37.898;2023-08-01T05:58:37;99402.03;;;20.61;69.39
71697;BME280;68167;59.120;37.898;2023-08-01T06:01:05;99390.44;;;20.61;69.35
71697;BME280;68167;59.120;37.898;2023-08-01T06:03:31;99342.28;;;20.33;69.05
71697;BME280;68167;59.120;37.898;2023-08-01T06:05:58;99373.75;;;20.59;68.67
71697;BME280;68167;59.120;37.898;2023-08-01T06:08:25;99398.13;;;20.83;68.93
71697;BME280;68167;59.120;37.898;2023-08-01T06:10:51;99414.28;;;20.92;69.01
71697;BME280;68167;59.120;37.898;2023-08-01T06:13:18;99403.91;;;20.94;68.09
71697;BME280;68167;59.120;37.898;2023-08-01T06:15:44;99409.91;;;20.99;68.08
71697;BME280;68167;59.120;37.898;2023-08-01T06:18:11;99390.25;;;20.90;67.92
71697;BME280;68167;59.120;37.898;2023-08-01T06:20:38;99399.09;;;20.99;67.76
71697;BME280;68167;59.120;37.898;2023-08-01T06:23:05;99405.44;;;21.16;67.38
71697;BME280;68167;59.120;37.898;2023-08-01T06:25:32;99364.91;;;20.95;68.07
71697;BME280;68167;59.120;37.898;2023-08-01T06:27:58;99428.63;;;21.38;67.42
71697;BME280;68167;59.120;37.898;2023-08-01T06:30:25;99407.63;;;21.34;67.60
71697;BME280;68167;59.120;37.898;2023-08-01T06:32:51;99414.28;;;21.49;67.47
71697;BME280;68167;59.120;37.898;2023-08-01T06:35:18;99405.69;;;21.47;67.56
71697;BME280;68167;59.120;37.898;2023-08-01T06:37:44;99424.91;;;21.66;66.72
71697;BME280;68167;59.120;37.898;2023-08-01T06:40:11;99370.53;;;21.35;66.67
71697;BME280;68167;59.120;37.898;2023-08-01T06:42:38;99403.78;;;21.60;65.46
71697;BME280;68167;59.120;37.898;2023-08-01T06:45:05;99405.59;;;21.68;65.51
71697;BME280;68167;59.120;37.898;2023-08-01T06:47:31;99398.16;;;21.65;65.61
71697;BME280;68167;59.120;37.898;2023-08-01T06:49:58;99398.59;;;21.67;64.28
71697;BME280;68167;59.120;37.898;2023-08-01T06:52:24;99440.59;;;21.97;64.46
71697;BME280;68167;59.120;37.898;2023-08-01T06:54:51;99420.94;;;22.00;64.25
71697;BME280;68167;59.120;37.898;2023-08-01T06:57:17;99427.81;;;22.10;64.09
71697;BME280;68167;59.120;37.898;2023-08-01T06:59:44;99439.31;;;22.19;62.89
71697;BME280;68167;59.120;37.898;2023-08-01T07:02:10;99438.75;;;22.26;62.16
71697;BME280;68167;59.120;37.898;2023-08-01T07:04:38;99416.28;;;22.13;62.32
71697;BME280;68167;59.120;37.898;2023-08-01T07:07:05;99408.59;;;22.15;62.28
71697;BME280;68167;59.120;37.898;2023-08-01T07:09:31;99445.47;;;22.44;61.52
71697;BME280;68167;59.120;37.898;2023-08-01T07:11:58;99448.41;;;22.51;61.93
71697;BME280;68167;59.120;37.898;2023-08-01T07:14:25;99430.63;;;22.54;61.21
71697;BME280;68167;59.120;37.898;2023-08-01T07:16:51;99431.53;;;22.58;61.81
71697;BME280;68167;59.120;37.898;2023-08-01T07:19:18;99445.06;;;22.70;60.94
71697;BME280;68167;59.120;37.898;2023-08-01T07:21:46;99397.53;;;22.48;60.69
71697;BME280;68167;59.120;37.898;2023-08-01T07:24:14;99435.72;;;22.83;60.35
71697;BME280;68167;59.120;37.898;2023-08-01T07:26:41;99427.72;;;22.75;59.94
71697;BME280;68167;59.120;37.898;2023-08-01T07:29:07;99401.34;;;22.59;60.02
71697;BME280;68167;59.120;37.898;2023-08-01T07:31:35;99444.50;;;22.92;59.76
71697;BME280;68167;59.120;37.898;2023-08-01T07:34:02;99385.59;;;22.65;59.50
71697;BME280;68167;59.120;37.898;2023-08-01T07:36:29;99432.78;;;23.04;58.89
71697;BME280;68167;59.120;37.898;2023-08-01T07:38:56;99443.06;;;23.11;58.83
71697;BME280;68167;59.120;37.898;2023-08-01T07:41:22;99431.84;;;23.12;58.23
71697;BME280;68167;59.120;37.898;2023-08-01T07:43:49;99440.25;;;23.23;58.27
71697;BME280;68167;59.120;37.898;2023-08-01T07:46:15;99397.16;;;23.06;57.74
71697;BME280;68167;59.120;37.898;2023-08-01T07:48:42;99444.13;;;23.38;57.22
71697;BME280;68167;59.120;37.898;2023-08-01T07:51:08;99425.47;;;23.36;57.35
71697;BME280;68167;59.120;37.898;2023-08-01T07:53:37;99420.88;;;23.40;56.84
71697;BME280;68167;59.120;37.898;2023-08-01T07:56:04;99432.56;;;23.56;55.96
71697;BME280;68167;59.120;37.898;2023-08-01T07:58:32;99383.84;;;23.32;55.34
71697;BME280;68167;59.120;37.898;2023-08-01T08:01:06;99411.53;;;23.53;54.60
71697;BME280;68167;59.120;37.898;2023-08-01T08:03:33;99429.22;;;23.63;54.58
71697;BME280;68167;59.120;37.898;2023-08-01T08:06:00;99416.09;;;23.65;54.65
71697;BME280;68167;59.120;37.898;2023-08-01T08:08:26;99445.25;;;23.84;54.47
71697;BME280;68167;59.120;37.898;2023-08-01T08:10:53;99448.66;;;23.96;54.28
71697;BME280;68167;59.120;37.898;2023-08-01T08:13:20;99437.44;;;23.98;54.43
71697;BME280;68167;59.120;37.898;2023-08-01T08:15:46;99436.38;;;24.03;53.65
71697;BME280;68167;59.120;37.898;2023-08-01T08:18:13;99446.16;;;24.07;53.62
71697;BME280;68167;59.120;37.898;2023-08-01T08:20:43;99444.91;;;24.20;54.21
71697;BME280;68167;59.120;37.898;2023-08-01T08:23:11;99441.56;;;24.27;53.59
71697;BME280;68167;59.120;37.898;2023-08-01T08:25:41;99396.84;;;24.09;53.26
71697;BME280;68167;59.120;37.898;2023-08-01T08:28:08;99412.78;;;24.26;53.19
71697;BME280;68167;59.120;37.898;2023-08-01T08:30:35;99436.16;;;24.46;52.94
71697;BME280;68167;59.120;37.898;2023-08-01T08:33:02;99447.69;;;24.59;53.29
71697;BME280;68167;59.120;37.898;2023-08-01T08:35:30;99449.53;;;24.74;52.82
71697;BME280;68167;59.120;37.898;2023-08-01T08:37:59;99454.31;;;24.81;52.93
71697;BME280;68167;59.120;37.898;2023-08-01T08:40:26;99422.19;;;24.67;52.36
71697;BME280;68167;59.120;37.898;2023-08-01T08:42:53;99448.66;;;24.89;53.26
71697;BME280;68167;59.120;37.898;2023-08-01T08:45:21;99450.03;;;24.99;51.56
71697;BME280;68167;59.120;37.898;2023-08-01T08:47:55;99398.47;;;24.68;51.57
71697;BME280;68167;59.120;37.898;2023-08-01T08:50:23;99422.91;;;24.87;50.87
71697;BME280;68167;59.120;37.898;2023-08-01T08:52:51;99415.47;;;24.84;50.77
71697;BME280;68167;59.120;37.898;2023-08-01T08:55:19;99457.81;;;25.20;50.81
71697;BME280;68167;59.120;37.898;2023-08-01T08:57:51;99452.91;;;25.29;50.79
71697;BME280;68167;59.120;37.898;2023-08-01T09:00:19;99463.59;;;25.41;50.16
71697;BME280;68167;59.120;37.898;2023-08-01T09:02:46;99431.78;;;25.22;50.67
71697;BME280;68167;59.120;37.898;2023-08-01T09:05:14;99417.56;;;25.36;50.94
71697;BME280;68167;59.120;37.898;2023-08-01T09:07:42;99401.63;;;25.38;51.11
71697;BME280;68167;59.120;37.898;2023-08-01T09:10:11;99456.94;;;25.84;51.47
71697;BME280;68167;59.120;37.898;2023-08-01T09:12:38;99435.47;;;25.83;50.02
71697;BME280;68167;59.120;37.898;2023-08-01T09:15:04;99445.28;;;25.87;49.51
71697;BME280;68167;59.120;37.898;2023-08-01T09:17:31;99397.44;;;25.67;48.78
71697;BME280;68167;59.120;37.898;2023-08-01T09:20:05;99452.13;;;26.04;48.71
71697;BME280;68167;59.120;37.898;2023-08-01T09:22:46;99452.06;;;25.97;49.47
71697;BME280;68167;59.120;37.898;2023-08-01T09:25:13;99447.06;;;26.03;48.76
71697;BME280;68167;59.120;37.898;2023-08-01T09:27:40;99407.69;;;25.74;49.24
71697;BME280;68167;59.120;37.898;2023-08-01T09:30:10;99449.16;;;26.13;48.21
71697;BME280;68167;59.120;37.898;2023-08-01T09:32:39;99444.25;;;26.25;46.80
71697;BME280;68167;59.120;37.898;2023-08-01T09:35:06;99430.97;;;26.24;46.99
71697;BME280;68167;59.120;37.898;2023-08-01T09:37:41;99408.88;;;26.33;47.35
71697;BME280;68167;59.120;37.898;2023-08-01T09:40:10;99424.56;;;26.73;46.75
71697;BME280;68167;59.120;37.898;2023-08-01T09:42:41;99430.69;;;26.96;47.16
71697;BME280;68167;59.120;37.898;2023-08-01T09:45:15;99432.16;;;27.27;47.33
71697;BME280;68167;59.120;37.898;2023-08-01T09:47:44;99376.19;;;27.10;45.91
71697;BME280;68167;59.120;37.898;2023-08-01T09:50:12;99440.19;;;27.53;45.79
71697;BME280;68167;59.120;37.898;2023-08-01T09:52:46;99457.88;;;27.63;46.04
71697;BME280;68167;59.120;37.898;2023-08-01T09:55:26;99424.94;;;27.52;44.39
71697;BME280;68167;59.120;37.898;2023-08-01T09:57:57;99393.69;;;27.06;44.93
71697;BME280;68167;59.120;37.898;2023-08-01T10:00:28;99426.81;;;27.45;45.20
71697;BME280;68167;59.120;37.898;2023-08-01T10:03:00;99417.88;;;27.51;45.28
71697;BME280;68167;59.120;37.898;2023-08-01T10:05:31;99426.09;;;27.51;45.21
71697;BME280;68167;59.120;37.898;2023-08-01T10:08:02;99434.16;;;27.34;46.36
71697;BME280;68167;59.120;37.898;2023-08-01T10:10:30;99453.47;;;27.11;46.52
71697;BME280;68167;59.120;37.898;2023-08-01T10:12:57;99444.47;;;27.07;47.35
71697;BME280;68167;59.120;37.898;2023-08-01T10:15:24;99403.78;;;26.98;47.70
71697;BME280;68167;59.120;37.898;2023-08-01T10:17:54;99446.66;;;27.35;45.49
71697;BME280;68167;59.120;37.898;2023-08-01T10:20:21;99454.63;;;27.54;45.04
71697;BME280;68167;59.120;37.898;2023-08-01T10:22:50;99438.31;;;27.61;45.10
71697;BME280;68167;59.120;37.898;2023-08-01T10:25:18;99390.44;;;27.37;43.89
71697;BME280;68167;59.120;37.898;2023-08-01T10:28:01;99387.75;;;27.44;44.19
71697;BME280;68167;59.120;37.898;2023-08-01T10:30:29;99450.28;;;27.97;44.00
71697;BME280;68167;59.120;37.898;2023-08-01T10:32:59;99447.94;;;27.99;42.21
71697;BME280;68167;59.120;37.898;2023-08-01T10:35:37;99408.81;;;27.95;43.64
71697;BME280;68167;59.120;37.898;2023-08-01T10:38:08;99436.00;;;28.29;44.53
71697;BME280;68167;59.120;37.898;2023-08-01T10:40:43;99428.63;;;28.36;43.00
71697;BME280;68167;59.120;37.898;2023-08-01T10:43:20;99411.41;;;28.36;43.86
71697;BME280;68167;59.120;37.898;2023-08-01T10:45:47;99440.81;;;28.60;44.37
71697;BME280;68167;59.120;37.898;2023-08-01T10:48:14;99438.91;;;28.71;43.19
71697;BME280;68167;59.120;37.898;2023-08-01T10:50:41;99444.81;;;28.80;44.81
71697;BME280;68167;59.120;37.898;2023-08-01T10:53:09;99411.50;;;28.75;44.11
71697;BME280;68167;59.120;37.898;2023-08-01T10:55:44;99413.16;;;28.90;43.99
71697;BME280;68167;59.120;37.898;2023-08-01T10:58:12;99411.22;;;29.05;44.12
71697;BME280;68167;59.120;37.898;2023-08-01T11:00:39;99448.81;;;29.36;43.55
71697;BME280;68167;59.120;37.898;2023-08-01T11:03:05;99414.75;;;29.30;42.09
71697;BME280;68167;59.120;37.898;2023-08-01T11:05:32;99410.84;;;29.42;42.45
71697;BME280;68167;59.120;37.898;2023-08-01T11:08:00;99420.66;;;29.54;41.68
71697;BME280;68167;59.120;37.898;2023-08-01T11:10:31;99440.63;;;29.68;42.44
71697;BME280;68167;59.120;37.898;2023-08-01T11:12:59;99434.34;;;29.82;42.20
71697;BME280;68167;59.120;37.898;2023-08-01T11:15:26;99352.47;;;29.45;41.92
71697;BME280;68167;59.120;37.898;2023-08-01T11:17:54;99417.41;;;29.98;39.87
71697;BME280;68167;59.120;37.898;2023-08-01T11:20:23;99421.34;;;30.11;41.72
71697;BME280;68167;59.120;37.898;2023-08-01T11:25:40;99435.75;;;30.43;40.98
71697;BME280;68167;59.120;37.898;2023-08-01T11:28:26;99439.97;;;30.66;41.33
71697;BME280;68167;59.120;37.898;2023-08-01T11:30:52;99449.69;;;30.88;39.96
71697;BME280;68167;59.120;37.898;2023-08-01T11:33:23;99450.84;;;30.91;38.70
71697;BME280;68167;59.120;37.898;2023-08-01T11:35:54;99408.53;;;30.74;39.24
71697;BME280;68167;59.120;37.898;2023-08-01T11:38:27;99426.47;;;30.93;38.89
71697;BME280;68167;59.120;37.898;2023-08-01T11:41:00;99428.75;;;31.08;38.82
71697;BME280;68167;59.120;37.898;2023-08-01T11:43:41;99431.66;;;31.39;40.02
71697;BME280;68167;59.120;37.898;2023-08-01T11:46:08;99404.16;;;31.35;39.31
71697;BME280;68167;59.120;37.898;2023-08-01T11:48:36;99424.81;;;31.58;39.01
71697;BME280;68167;59.120;37.898;2023-08-01T11:51:02;99428.25;;;31.72;38.64
71697;BME280;68167;59.120;37.898;2023-08-01T11:53:29;99429.03;;;31.73;37.93
71697;BME280;68167;59.120;37.898;2023-08-01T11:55:57;99393.38;;;31.55;37.35
71697;BME280;68167;59.120;37.898;2023-08-01T12:01:04;99419.13;;;31.34;38.47
71697;BME280;68167;59.120;37.898;2023-08-01T12:03:31;99391.19;;;30.84;38.48
71697;BME280;68167;59.120;37.898;2023-08-01T12:06:06;99394.50;;;30.51;38.50
71697;BME280;68167;59.120;37.898;2023-08-01T12:08:35;99420.91;;;30.27;39.85
71697;BME280;68167;59.120;37.898;2023-08-01T12:11:02;99401.75;;;29.95;39.28
71697;BME280;68167;59.120;37.898;2023-08-01T12:13:29;99408.84;;;29.89;41.06
71697;BME280;68167;59.120;37.898;2023-08-01T12:15:57;99402.19;;;29.75;41.30
71697;BME280;68167;59.120;37.898;2023-08-01T12:18:26;99402.59;;;29.63;41.64
71697;BME280;68167;59.120;37.898;2023-08-01T12:20:53;99429.25;;;29.66;41.73
71697;BME280;68167;59.120;37.898;2023-08-01T12:23:20;99425.75;;;29.44;41.55
71697;BME280;68167;59.120;37.898;2023-08-01T12:25:47;99363.44;;;29.13;41.38
71697;BME280;68167;59.120;37.898;2023-08-01T12:28:14;99432.00;;;29.52;40.37
71697;BME280;68167;59.120;37.898;2023-08-01T12:30:42;99418.25;;;29.38;40.72
71697;BME280;68167;59.120;37.898;2023-08-01T12:33:09;99387.34;;;29.20;39.93
71697;BME280;68167;59.120;37.898;2023-08-01T12:35:39;99430.06;;;29.49;41.62
71697;BME280;68167;59.120;37.898;2023-08-01T12:38:08;99381.81;;;29.27;40.70
71697;BME280;68167;59.120;37.898;2023-08-01T12:40:35;99404.19;;;29.43;40.66
71697;BME280;68167;59.120;37.898;2023-08-01T12:43:01;99413.97;;;29.44;40.75
71697;BME280;68167;59.120;37.898;2023-08-01T12:45:29;99412.00;;;29.30;40.59
71697;BME280;68167;59.120;37.898;2023-08-01T12:47:55;99416.31;;;29.28;41.45
71697;BME280;68167;59.120;37.898;2023-08-01T12:50:22;99394.38;;;29.03;40.33
71697;BME280;68167;59.120;37.898;2023-08-01T12:52:49;99430.44;;;29.23;41.14
71697;BME280;68167;59.120;37.898;2023-08-01T12:55:15;99404.16;;;29.07;40.54
71697;BME280;68167;59.120;37.898;2023-08-01T12:57:42;99417.09;;;29.14;40.33
71697;BME280;68167;59.120;37.898;2023-08-01T13:00:09;99403.78;;;29.02;41.75